Terminal Aerodrome Forecast
Issued by NWS

Home | Current Version | Previous Version | Text Only | Print | Product List | Glossary On
Versions: 1 2 3 4 5 6 7 8 9 10 11 12 13 14 15 16 17 18 19 20 21 22 23 24 25
000
FTUS41 KGYX 271125
TAFAUG
TAF
KAUG 271125Z 2712/2812 34014G22KT 3SM -SN BLSN BR SCT010 OVC015
      TEMPO 2712/2713 1 1/2SM -SN BLSN BR BKN010
     FM271400 33011G20KT P6SM -SHSN BKN040
     FM271900 35007KT P6SM BKN050=

USA.gov is the U.S. government's official web portal to all federal, state and local government web resources and services.